Time;durP1;ratioP1;P1;durP2;ratioP2;P2;SDS_P1;SDS_P2;PMS_P1;PMS_P2;Temp;Humidity;BMP_temperature;BMP_pressure;BME280_temperature;BME280_humidity;BME280_pressure;Samples;Min_cycle;Max_cycle;Signal;HPM_P1;HPM_P2
2022/12/13 00:00:34;;;;;;;19.35;10.57;;;;;;;-2.77;100.00;97893.50;5017022;28;20058;-61
2022/12/13 00:03:01;;;;;;;24.60;11.85;;;;;;;-2.74;100.00;97898.25;5016827;28;20064;-60
2022/12/13 00:05:27;;;;;;;17.52;8.82;;;;;;;-2.86;100.00;97910.34;5017192;28;20144;-61
2022/12/13 00:07:53;;;;;;;24.40;11.00;;;;;;;-2.86;100.00;97899.63;5016790;28;20119;-60
2022/12/13 00:10:20;;;;;;;23.42;11.18;;;;;;;-2.71;100.00;97894.97;5017158;28;20429;-60
2022/12/13 00:12:46;;;;;;;25.42;11.55;;;;;;;-2.79;100.00;97901.88;5016764;28;20046;-60
2022/12/13 00:15:13;;;;;;;23.65;11.57;;;;;;;-2.65;100.00;97899.09;5016440;28;20050;-61
2022/12/13 00:17:39;;;;;;;23.33;11.93;;;;;;;-2.62;100.00;97896.59;5016612;28;20100;-60
2022/12/13 00:20:06;;;;;;;21.88;10.77;;;;;;;-2.61;100.00;97903.53;5017158;28;20136;-61
2022/12/13 00:22:32;;;;;;;21.95;10.77;;;;;;;-2.74;100.00;97895.56;5016539;28;20403;-61
2022/12/13 00:24:58;;;;;;;22.58;11.05;;;;;;;-2.65;100.00;97888.38;5016839;28;20145;-61
2022/12/13 00:27:25;;;;;;;26.70;12.80;;;;;;;-2.66;100.00;97890.25;5016560;28;20058;-59
2022/12/13 00:29:52;;;;;;;20.55;8.85;;;;;;;-2.71;100.00;97898.44;5016705;28;20050;-59
2022/12/13 00:32:18;;;;;;;22.05;11.52;;;;;;;-2.52;100.00;97887.47;5016713;28;20136;-61
2022/12/13 00:34:44;;;;;;;20.70;10.55;;;;;;;-2.74;100.00;97887.53;5016579;28;20188;-60
2022/12/13 00:37:11;;;;;;;25.17;12.30;;;;;;;-2.50;100.00;97885.28;5016806;28;20182;-62
2022/12/13 00:39:37;;;;;;;19.55;9.95;;;;;;;-2.52;100.00;97876.72;5016391;28;20141;-60
2022/12/13 00:42:04;;;;;;;15.30;8.23;;;;;;;-2.63;100.00;97881.59;5016809;28;20347;-60
2022/12/13 00:44:30;;;;;;;24.52;10.88;;;;;;;-2.64;100.00;97882.69;5016382;28;20423;-61
2022/12/13 00:46:57;;;;;;;21.67;11.27;;;;;;;-2.58;100.00;97864.56;5016743;28;20085;-61
2022/12/13 00:49:24;;;;;;;18.33;8.43;;;;;;;-2.63;100.00;97872.75;5016312;28;20145;-60
2022/12/13 00:51:50;;;;;;;26.30;12.77;;;;;;;-2.43;100.00;97869.50;5016704;28;20132;-60
2022/12/13 00:54:17;;;;;;;31.70;12.18;;;;;;;-2.56;100.00;97881.16;5016186;28;20053;-61
2022/12/13 00:56:43;;;;;;;26.33;11.90;;;;;;;-2.23;100.00;97875.38;5016454;28;20060;-61
2022/12/13 00:59:13;;;;;;;27.95;12.88;;;;;;;-2.21;100.00;97887.41;5016415;28;20328;-59
2022/12/13 01:01:39;;;;;;;22.73;11.65;;;;;;;-2.28;100.00;97897.81;5016398;28;20081;-59
2022/12/13 01:04:06;;;;;;;24.65;10.32;;;;;;;-2.51;100.00;97905.16;5016302;28;20046;-60
2022/12/13 01:06:36;;;;;;;22.00;10.85;;;;;;;-2.49;100.00;97896.78;5016414;28;20058;-61
2022/12/13 01:09:04;;;;;;;26.52;12.15;;;;;;;-2.39;100.00;97881.19;5016367;28;20054;-61
2022/12/13 01:11:31;;;;;;;27.48;12.75;;;;;;;-2.47;100.00;97884.63;5016146;28;20362;-60
2022/12/13 01:13:57;;;;;;;20.73;10.75;;;;;;;-2.51;100.00;97877.53;5016370;28;20153;-62
2022/12/13 01:16:23;;;;;;;26.77;12.43;;;;;;;-2.42;100.00;97881.81;5016046;28;20339;-59
2022/12/13 01:18:49;;;;;;;22.55;11.38;;;;;;;-2.50;100.00;97877.22;5016290;28;20050;-61
2022/12/13 01:21:19;;;;;;;27.88;12.32;;;;;;;-2.51;100.00;97872.94;5015894;28;20477;-59
2022/12/13 01:23:45;;;;;;;19.73;11.55;;;;;;;-2.55;100.00;97858.56;5016334;28;20080;-61
2022/12/13 01:26:14;;;;;;;27.98;12.95;;;;;;;-2.18;100.00;97843.81;5016059;28;20057;-60
2022/12/13 01:28:40;;;;;;;32.00;14.27;;;;;;;-2.15;100.00;97864.66;5019442;28;20065;-61
2022/12/13 01:31:09;;;;;;;28.65;13.98;;;;;;;-1.96;100.00;97859.03;5019311;28;20061;-61
2022/12/13 01:33:36;;;;;;;27.85;13.82;;;;;;;-2.19;100.00;97881.72;5019305;28;20077;-61
2022/12/13 01:36:04;;;;;;;26.17;13.27;;;;;;;-2.24;100.00;97879.97;5019572;28;20383;-60
2022/12/13 01:38:32;;;;;;;25.25;13.35;;;;;;;-2.43;100.00;97880.25;5019047;28;20057;-61
2022/12/13 01:40:58;;;;;;;25.55;13.15;;;;;;;-2.44;100.00;97878.66;5018998;28;20056;-60
2022/12/13 01:43:28;;;;;;;28.25;12.60;;;;;;;-2.39;100.00;97864.31;5019020;28;20341;-62
2022/12/13 01:45:54;;;;;;;23.02;13.00;;;;;;;-2.11;100.00;97858.69;5019435;28;20553;-61
2022/12/13 01:48:25;;;;;;;24.50;12.77;;;;;;;-2.17;100.00;97864.19;5019209;28;20054;-60
2022/12/13 01:50:56;;;;;;;27.73;13.45;;;;;;;-2.38;100.00;97866.66;5018894;28;20104;-60
2022/12/13 01:53:26;;;;;;;25.38;13.48;;;;;;;-2.37;100.00;97868.28;5019223;28;20056;-61
2022/12/13 01:55:57;;;;;;;26.33;12.88;;;;;;;-2.42;100.00;97870.28;5018891;28;20053;-61
2022/12/13 01:58:24;;;;;;;22.75;11.93;;;;;;;-2.43;100.00;97861.47;5019113;28;20058;-60
2022/12/13 02:00:50;;;;;;;22.45;10.70;;;;;;;-2.46;100.00;97856.72;5018774;28;20045;-62
2022/12/13 02:03:20;;;;;;;27.48;13.48;;;;;;;-2.42;100.00;97848.81;5018986;28;20474;-60
2022/12/13 02:05:52;;;;;;;21.70;10.35;;;;;;;-2.41;100.00;97845.81;5018760;28;20334;-60
2022/12/13 02:08:21;;;;;;;24.70;13.52;;;;;;;-2.31;100.00;97835.91;5019056;28;20093;-59
2022/12/13 02:10:47;;;;;;;29.25;14.57;;;;;;;-2.30;100.00;97840.97;5018890;28;20378;-61
2022/12/13 02:13:14;;;;;;;24.88;11.98;;;;;;;-2.38;100.00;97849.78;5018828;28;20058;-61
2022/12/13 02:15:48;;;;;;;24.70;10.93;;;;;;;-2.36;100.00;97850.28;5018659;28;20058;-60
2022/12/13 02:18:25;;;;;;;27.30;13.05;;;;;;;-2.18;100.00;97845.72;5018395;28;20200;-59
2022/12/13 02:21:13;;;;;;;31.30;14.10;;;;;;;-2.24;100.00;97850.44;5018715;28;20192;-62
2022/12/13 02:24:18;;;;;;;26.95;12.73;;;;;;;-2.29;100.00;97853.28;5005940;28;20143;-62
2022/12/13 02:27:17;;;;;;;25.52;13.60;;;;;;;-1.90;100.00;97846.22;5018632;28;20136;-62
2022/12/13 02:30:15;;;;;;;25.67;12.32;;;;;;;-2.11;100.00;97866.75;4985518;28;20144;-61
2022/12/13 02:32:54;;;;;;;26.38;13.40;;;;;;;-1.89;100.00;97869.31;5018328;28;20049;-61
2022/12/13 02:35:25;;;;;;;25.25;12.85;;;;;;;-2.00;100.00;97876.88;5018711;28;20133;-61
2022/12/13 02:38:00;;;;;;;24.23;12.38;;;;;;;-2.09;100.00;97884.13;5017750;28;20053;-59
2022/12/13 02:40:31;;;;;;;30.15;13.05;;;;;;;-2.03;100.00;97882.88;5018236;28;20140;-60
2022/12/13 02:43:04;;;;;;;29.50;13.30;;;;;;;-2.08;100.00;97884.91;5018466;28;20132;-62
2022/12/13 02:45:37;;;;;;;24.92;11.32;;;;;;;-1.91;100.00;97874.97;5018109;28;20054;-61
2022/12/13 02:48:07;;;;;;;29.65;15.38;;;;;;;-2.03;100.00;97876.69;5018390;28;20478;-61
2022/12/13 02:50:35;;;;;;;26.73;13.35;;;;;;;-2.03;100.00;97882.88;5018063;28;20150;-61
2022/12/13 02:53:02;;;;;;;28.27;13.23;;;;;;;-2.07;100.00;97879.22;5018383;28;20061;-61
2022/12/13 02:55:31;;;;;;;24.05;10.82;;;;;;;-2.19;100.00;97884.41;5017992;28;20151;-61
2022/12/13 02:57:57;;;;;;;23.00;11.95;;;;;;;-1.95;100.00;97868.66;5018250;28;20297;-60
2022/12/13 03:00:38;;;;;;;20.90;11.55;;;;;;;-2.15;100.00;97875.41;5017878;28;20156;-61
2022/12/13 03:03:21;;;;;;;26.38;12.07;;;;;;;-2.13;100.00;97867.84;5018006;28;20160;-61
2022/12/13 03:08:54;;;;;;;24.23;11.90;;;;;;;-1.84;100.00;97873.72;5017879;28;20052;-61
2022/12/13 03:11:24;;;;;;;27.38;12.32;;;;;;;-2.14;100.00;97873.50;5018203;28;20155;-60
2022/12/13 03:13:54;;;;;;;23.50;11.60;;;;;;;-2.03;100.00;97872.13;5017915;28;20058;-60
2022/12/13 03:16:27;;;;;;;24.42;11.20;;;;;;;-2.07;100.00;97873.84;5017626;28;20140;-60
2022/12/13 03:18:58;;;;;;;21.30;11.57;;;;;;;-1.75;100.00;97867.25;5017805;28;20057;-60
2022/12/13 03:21:25;;;;;;;23.58;10.15;;;;;;;-2.05;100.00;97890.44;5017966;28;20193;-61
2022/12/13 03:23:51;;;;;;;21.40;11.35;;;;;;;-1.99;100.00;97888.41;5017782;28;20140;-60
2022/12/13 03:26:20;;;;;;;22.60;11.40;;;;;;;-2.10;100.00;97885.22;5017734;28;20145;-62
2022/12/13 03:28:47;;;;;;;22.10;11.18;;;;;;;-1.92;100.00;97878.00;5017973;28;20140;-61
2022/12/13 03:31:13;;;;;;;19.00;10.73;;;;;;;-1.93;100.00;97884.47;5017453;28;20045;-61
2022/12/13 03:33:39;;;;;;;22.50;12.13;;;;;;;-1.85;100.00;97881.00;5018130;28;20069;-60
2022/12/13 03:36:08;;;;;;;25.27;13.30;;;;;;;-1.86;100.00;97882.09;5017260;28;20053;-61
2022/12/13 03:38:34;;;;;;;24.67;12.30;;;;;;;-1.82;100.00;97888.44;5017150;28;20412;-62
2022/12/13 03:41:05;;;;;;;26.17;11.40;;;;;;;-2.02;100.00;97887.13;5017535;28;20077;-60
2022/12/13 03:43:31;;;;;;;17.95;10.80;;;;;;;-2.11;100.00;97886.31;5017178;28;20165;-61
2022/12/13 03:45:58;;;;;;;22.65;10.80;;;;;;;-2.02;100.00;97878.28;5017564;28;20080;-60
2022/12/13 03:48:24;;;;;;;27.27;12.85;;;;;;;-1.88;100.00;97870.88;5017301;28;20053;-61
2022/12/13 03:50:51;;;;;;;20.80;10.98;;;;;;;-1.96;100.00;97885.88;5016324;28;20075;-61
2022/12/13 03:53:19;;;;;;;27.67;12.80;;;;;;;-1.78;100.00;97886.69;5017039;28;20053;-61
2022/12/13 03:55:46;;;;;;;27.45;13.70;;;;;;;-1.92;100.00;97891.41;5017332;28;20054;-61
2022/12/13 03:58:12;;;;;;;34.60;14.57;;;;;;;-1.54;100.00;97891.59;5017144;28;20141;-61
2022/12/13 04:00:39;;;;;;;26.30;13.60;;;;;;;-1.63;100.00;97906.13;5017639;28;20052;-61
2022/12/13 04:03:05;;;;;;;34.70;16.10;;;;;;;-1.53;100.00;97928.13;5016823;28;20064;-61
2022/12/13 04:05:31;;;;;;;29.83;14.55;;;;;;;-1.86;100.00;97929.69;5017146;28;20399;-61
2022/12/13 04:07:57;;;;;;;28.17;14.07;;;;;;;-1.48;100.00;97925.28;5017128;28;20132;-61
2022/12/13 04:10:25;;;;;;;22.98;13.00;;;;;;;-1.83;100.00;97934.41;5017065;28;20136;-60
2022/12/13 04:15:37;;;;;;;22.05;13.10;;;;;;;-1.92;100.00;97939.75;4983756;28;20046;-60
2022/12/13 04:18:04;;;;;;;22.38;11.90;;;;;;;-1.98;100.00;97944.47;5017227;28;20391;-62
2022/12/13 04:20:30;;;;;;;31.55;15.95;;;;;;;-1.63;100.00;97938.38;5016579;28;20140;-61
2022/12/13 04:22:57;;;;;;;34.47;18.98;;;;;;;-1.63;100.00;97936.50;5017047;28;20371;-60
2022/12/13 04:25:23;;;;;;;42.15;19.40;;;;;;;-1.88;100.00;97951.47;5016531;28;20136;-61
2022/12/13 04:27:50;;;;;;;33.75;16.35;;;;;;;-1.86;100.00;97943.09;5017340;28;20050;-61
2022/12/13 04:30:16;;;;;;;31.45;18.52;;;;;;;-1.84;100.00;97943.56;5016756;28;20054;-60
2022/12/13 04:32:43;;;;;;;34.72;15.98;;;;;;;-1.91;100.00;97944.81;5016718;28;20065;-61
2022/12/13 04:35:09;;;;;;;27.08;11.63;;;;;;;-1.95;100.00;97941.19;5016983;28;20111;-58
2022/12/13 04:37:35;;;;;;;39.20;16.90;;;;;;;-1.96;100.00;97933.44;5016517;28;20064;-61
2022/12/13 04:40:02;;;;;;;30.63;14.75;;;;;;;-1.99;100.00;97934.84;5016731;28;20133;-60
2022/12/13 04:42:28;;;;;;;32.28;17.17;;;;;;;-1.83;100.00;97931.72;5016498;28;20111;-61
2022/12/13 04:44:55;;;;;;;36.22;16.65;;;;;;;-1.68;100.00;97932.06;5016728;28;20050;-60
2022/12/13 04:47:22;;;;;;;27.83;14.38;;;;;;;-1.77;100.00;97947.38;5016063;28;20407;-61
2022/12/13 04:49:48;;;;;;;25.80;14.68;;;;;;;-1.81;100.00;97942.94;5016507;28;20060;-60
2022/12/13 04:52:15;;;;;;;25.52;12.95;;;;;;;-1.88;100.00;97950.69;5016052;28;20049;-61
2022/12/13 04:54:41;;;;;;;32.45;15.35;;;;;;;-1.82;100.00;97944.84;5016442;28;20100;-61
2022/12/13 04:57:10;;;;;;;27.98;13.30;;;;;;;-1.64;100.00;97942.19;5015943;28;20146;-60
2022/12/13 04:59:37;;;;;;;32.30;15.00;;;;;;;-1.71;100.00;97958.75;5015926;28;20097;-60
2022/12/13 05:02:06;;;;;;;32.33;15.75;;;;;;;-1.51;100.00;97966.22;5017596;28;20060;-62
2022/12/13 05:04:33;;;;;;;24.77;13.57;;;;;;;-1.74;100.00;97980.88;5019493;28;20412;-61
2022/12/13 05:06:59;;;;;;;26.20;12.18;;;;;;;-1.84;100.00;97981.19;5019551;28;20407;-61
2022/12/13 05:09:26;;;;;;;27.20;12.48;;;;;;;-1.72;100.00;97981.38;5019465;28;20054;-61
2022/12/13 05:11:52;;;;;;;21.60;11.63;;;;;;;-1.77;100.00;97979.59;5019784;28;20331;-60
2022/12/13 05:14:18;;;;;;;26.83;12.27;;;;;;;-1.82;100.00;97989.72;5019311;28;20054;-61
2022/12/13 05:16:44;;;;;;;32.15;12.73;;;;;;;-1.29;100.00;97986.03;5019766;28;20143;-60
2022/12/13 05:19:11;;;;;;;25.15;12.18;;;;;;;-1.69;100.00;97997.66;5019258;28;20054;-61
2022/12/13 05:21:38;;;;;;;21.35;11.15;;;;;;;-1.63;100.00;98008.25;5019726;28;20400;-61
2022/12/13 05:24:05;;;;;;;27.45;11.98;;;;;;;-1.82;100.00;98003.16;5019608;28;20085;-61
2022/12/13 05:26:32;;;;;;;20.63;11.10;;;;;;;-1.85;100.00;97999.19;5019063;28;20049;-61
2022/12/13 05:28:58;;;;;;;21.70;11.52;;;;;;;-1.49;100.00;97996.28;5019380;28;20063;-58
2022/12/13 05:31:25;;;;;;;26.52;10.85;;;;;;;-1.54;100.00;98009.06;5019228;28;20062;-60
2022/12/13 05:33:52;;;;;;;20.20;10.20;;;;;;;-1.73;100.00;98015.53;5019101;28;20085;-63
2022/12/13 05:36:21;;;;;;;24.30;12.57;;;;;;;-1.56;100.00;98005.91;5018905;28;20089;-73
2022/12/13 05:38:47;;;;;;;27.33;12.63;;;;;;;-1.04;100.00;98001.34;5018986;28;20116;-61
2022/12/13 05:41:16;;;;;;;22.77;11.63;;;;;;;-0.72;100.00;98018.13;5019123;28;20057;-66
2022/12/13 05:43:43;;;;;;;19.88;10.23;;;;;;;-0.81;100.00;98055.81;5019108;28;20053;-67
2022/12/13 05:46:09;;;;;;;23.80;11.80;;;;;;;-0.14;100.00;98073.28;5018869;28;20115;-67
2022/12/13 05:48:35;;;;;;;22.40;11.95;;;;;;;-0.23;100.00;98110.25;5019215;28;20137;-65
2022/12/13 05:51:02;;;;;;;20.40;12.00;;;;;;;-0.33;100.00;98134.81;5018715;28;20092;-68
2022/12/13 05:53:29;;;;;;;18.67;9.55;;;;;;;-0.65;100.00;98150.31;5019207;28;20215;-66
2022/12/13 05:55:58;;;;;;;26.40;12.30;;;;;;;-0.26;100.00;98145.91;5018929;28;20096;-68
2022/12/13 05:58:25;;;;;;;21.40;11.20;;;;;;;-0.31;100.00;98151.44;5018600;28;20057;-65
2022/12/13 06:00:51;;;;;;;24.25;12.00;;;;;;;-0.16;100.00;98156.34;5018735;28;20101;-67
2022/12/13 06:03:17;;;;;;;17.30;8.65;;;;;;;1.77;100.00;98147.00;5018565;28;20101;-68
2022/12/13 06:05:44;;;;;;;15.43;9.23;;;;;;;3.29;100.00;98090.06;5018381;28;20411;-67
2022/12/13 06:08:10;;;;;;;13.80;8.27;;;;;;;1.99;100.00;97613.34;5018388;28;20065;-68
2022/12/13 06:10:37;;;;;;;20.60;10.80;;;;;;;0.55;100.00;97457.41;5018880;28;20054;-67
2022/12/13 06:13:05;;;;;;;20.83;10.85;;;;;;;0.05;100.00;97651.78;5017500;28;20061;-67
2022/12/13 06:15:31;;;;;;;25.67;12.30;;;;;;;0.22;100.00;97757.50;5018595;28;20088;-67
2022/12/13 06:17:59;;;;;;;24.02;11.63;;;;;;;0.27;100.00;97831.19;5018242;28;20104;-67
2022/12/13 06:20:26;;;;;;;25.67;12.85;;;;;;;0.18;100.00;97852.84;5018610;28;20085;-67
2022/12/13 06:22:52;;;;;;;26.38;12.70;;;;;;;0.02;100.00;97882.25;5018323;28;20141;-67
2022/12/13 06:25:18;;;;;;;26.10;12.48;;;;;;;-0.32;100.00;97905.56;5018138;28;20057;-67
2022/12/13 06:27:45;;;;;;;29.38;13.27;;;;;;;-0.17;100.00;97976.94;5018523;28;20057;-70
2022/12/13 06:30:12;;;;;;;39.20;11.93;;;;;;;1.01;100.00;97988.78;5018191;28;20060;-66
2022/12/13 06:32:39;;;;;;;25.02;11.98;;;;;;;0.11;100.00;97891.09;5018445;28;20136;-70
2022/12/13 06:35:06;;;;;;;22.05;11.85;;;;;;;-0.23;100.00;97913.63;5018289;28;20340;-66
2022/12/13 06:37:32;;;;;;;30.52;14.38;;;;;;;-0.02;100.00;97984.50;5018171;28;20050;-66
2022/12/13 06:39:58;;;;;;;26.55;14.07;;;;;;;0.04;100.00;97976.25;5017885;28;20226;-65
2022/12/13 06:42:24;;;;;;;26.05;14.32;;;;;;;-0.17;100.00;97974.25;5018384;28;20060;-68
2022/12/13 06:44:51;;;;;;;23.65;11.55;;;;;;;1.57;100.00;98079.16;5017963;28;20061;-66
2022/12/13 06:47:18;;;;;;;25.92;11.93;;;;;;;3.46;100.00;97994.16;5017490;28;20127;-68
2022/12/13 06:49:45;;;;;;;24.60;11.07;;;;;;;3.93;100.00;97682.44;5017521;28;20089;-66
2022/12/13 06:52:13;;;;;;;18.38;10.25;;;;;;;3.64;100.00;97336.13;5018002;28;20050;-66
2022/12/13 06:54:39;;;;;;;30.17;14.02;;;;;;;2.28;100.00;97034.31;5017888;28;20089;-67
2022/12/13 06:57:06;;;;;;;31.90;15.32;;;;;;;1.46;100.00;96995.06;5017863;28;20045;-67
2022/12/13 06:59:32;;;;;;;30.02;15.23;;;;;;;0.98;100.00;97097.06;5017687;28;20050;-66
2022/12/13 07:01:59;;;;;;;33.28;15.07;;;;;;;0.33;100.00;97250.34;5017729;28;20061;-67
2022/12/13 07:04:25;;;;;;;30.98;14.50;;;;;;;0.44;100.00;97445.53;5017723;28;20068;-67
2022/12/13 07:06:52;;;;;;;25.27;13.73;;;;;;;-0.01;100.00;97578.47;5017687;28;20154;-67
2022/12/13 07:09:18;;;;;;;28.52;14.45;;;;;;;0.14;100.00;97722.56;5017558;28;20119;-67
2022/12/13 07:11:44;;;;;;;27.38;13.95;;;;;;;-0.11;100.00;97770.16;5017431;28;20217;-66
2022/12/13 07:14:11;;;;;;;35.15;15.70;;;;;;;-0.24;100.00;97860.84;5017426;28;20116;-68
2022/12/13 07:16:37;;;;;;;19.42;11.00;;;;;;;1.15;100.00;97981.97;5017265;28;20064;-67
2022/12/13 07:19:05;;;;;;;24.33;12.70;;;;;;;0.74;100.00;97847.94;5017162;28;20168;-68
2022/12/13 07:21:35;;;;;;;21.52;12.65;;;;;;;0.21;100.00;97820.63;5017476;28;20054;-67
2022/12/13 07:24:01;;;;;;;15.57;9.40;;;;;;;-0.53;100.00;97807.81;5017364;28;20349;-66
2022/12/13 07:26:27;;;;;;;30.58;13.48;;;;;;;-0.13;100.00;97926.72;5017254;28;20094;-68
2022/12/13 07:28:53;;;;;;;22.33;11.23;;;;;;;-0.25;100.00;97938.19;5017555;28;20054;-66
2022/12/13 07:31:20;;;;;;;24.45;12.88;;;;;;;-0.10;100.00;97992.63;5017176;28;20046;-68
2022/12/13 07:33:46;;;;;;;24.33;12.68;;;;;;;0.05;100.00;97980.53;5017600;28;20100;-68
2022/12/13 07:36:16;;;;;;;21.20;10.75;;;;;;;-0.21;100.00;97969.84;5017171;28;20081;-66
2022/12/13 07:38:42;;;;;;;30.65;12.75;;;;;;;0.08;100.00;97999.53;5017300;28;20086;-68
2022/12/13 07:41:09;;;;;;;26.48;9.60;;;;;;;-0.17;100.00;97968.09;5016963;28;20054;-68
2022/12/13 07:43:36;;;;;;;20.63;10.77;;;;;;;0.13;100.00;97995.84;5017584;28;20140;-70
2022/12/13 07:46:04;;;;;;;29.30;10.20;;;;;;;0.04;100.00;97966.25;5016730;28;20096;-67
2022/12/13 07:48:32;;;;;;;23.15;10.40;;;;;;;0.18;100.00;97971.41;5017411;28;20058;-68
2022/12/13 07:51:01;;;;;;;15.50;9.10;;;;;;;-0.17;100.00;97960.00;5016883;28;20111;-67
2022/12/13 07:53:28;;;;;;;16.25;8.80;;;;;;;0.14;100.00;97986.66;5016686;28;20447;-66
2022/12/13 07:55:54;;;;;;;15.02;7.97;;;;;;;-0.02;100.00;97987.19;5016955;28;20103;-67
2022/12/13 07:58:21;;;;;;;20.58;6.95;;;;;;;-0.25;100.00;97991.25;5016416;28;20049;-66
2022/12/13 08:00:47;;;;;;;13.93;6.78;;;;;;;-0.85;100.00;97995.66;5016924;28;20056;-64
2022/12/13 08:03:14;;;;;;;14.55;7.35;;;;;;;-0.86;100.00;98042.53;5016168;28;20086;-65
2022/12/13 08:05:40;;;;;;;15.77;6.55;;;;;;;-1.05;100.00;98093.94;5017099;28;20056;-66
2022/12/13 08:08:08;;;;;;;12.23;7.93;;;;;;;-0.99;100.00;98143.78;5016595;28;20327;-67
2022/12/13 08:10:36;;;;;;;13.15;6.93;;;;;;;-0.86;100.00;98166.28;5017042;28;20053;-65
2022/12/13 08:13:03;;;;;;;12.68;6.47;;;;;;;-0.63;100.00;98180.41;5016392;28;20506;-64
2022/12/13 08:15:30;;;;;;;16.83;7.50;;;;;;;-0.82;100.00;98175.31;5016687;28;20061;-62
2022/12/13 08:17:59;;;;;;;10.15;6.18;;;;;;;-0.98;100.00;98172.28;5016429;28;20089;-66
2022/12/13 08:20:25;;;;;;;16.13;9.00;;;;;;;-0.84;100.00;98201.75;5016434;28;20415;-67
2022/12/13 08:22:54;;;;;;;12.18;6.80;;;;;;;-0.84;100.00;98217.09;5016666;28;20049;-65
2022/12/13 08:25:21;;;;;;;13.50;6.82;;;;;;;-0.75;100.00;98212.53;5016452;28;20045;-64
2022/12/13 08:27:48;;;;;;;9.55;5.50;;;;;;;-1.12;100.00;98208.47;5016357;28;20050;-65
2022/12/13 08:30:14;;;;;;;8.63;5.38;;;;;;;-1.16;100.00;98200.25;5016053;28;20089;-66
2022/12/13 08:32:40;;;;;;;10.48;6.03;;;;;;;-0.45;100.00;98231.59;5016526;28;20163;-67
2022/12/13 08:35:07;;;;;;;11.63;7.45;;;;;;;-0.04;100.00;98240.00;5016198;28;20102;-65
2022/12/13 08:37:33;;;;;;;8.60;5.70;;;;;;;-0.22;100.00;98191.84;5015861;28;20123;-70
2022/12/13 08:40:00;;;;;;;15.50;6.65;;;;;;;0.06;100.00;98187.69;5015769;28;20049;-66
2022/12/13 08:42:26;;;;;;;11.65;6.97;;;;;;;-0.09;100.00;98150.47;5016038;28;20107;-65
2022/12/13 08:44:53;;;;;;;11.43;6.28;;;;;;;-0.13;100.00;98133.38;5016024;28;20100;-65
2022/12/13 08:47:21;;;;;;;9.15;6.38;;;;;;;0.03;100.00;98112.88;5016192;28;20204;-62
2022/12/13 08:49:47;;;;;;;11.35;6.85;;;;;;;0.32;100.00;98073.63;5016165;28;20053;-67
2022/12/13 08:52:14;;;;;;;12.55;6.65;;;;;;;0.51;100.00;98022.78;5015899;28;20116;-65
2022/12/13 08:54:40;;;;;;;15.40;6.82;;;;;;;0.26;100.00;97956.31;5016357;28;20092;-65
2022/12/13 08:57:06;;;;;;;13.65;7.13;;;;;;;0.19;100.00;97925.25;5015889;28;20168;-62
2022/12/13 08:59:33;;;;;;;12.43;6.25;;;;;;;0.49;100.00;97927.13;5016171;28;20320;-67
2022/12/13 09:02:00;;;;;;;14.07;7.18;;;;;;;0.36;100.00;97897.41;5015827;28;20081;-65
2022/12/13 09:04:26;;;;;;;12.55;5.22;;;;;;;-0.11;100.00;97840.97;5016286;28;20367;-66
2022/12/13 09:06:52;;;;;;;8.85;5.88;;;;;;;0.15;100.00;97875.84;5015971;28;20384;-68
2022/12/13 09:09:19;;;;;;;11.43;5.50;;;;;;;-0.33;100.00;97870.91;5016311;28;20162;-63
2022/12/13 09:11:45;;;;;;;12.77;5.93;;;;;;;-0.41;100.00;97891.34;5015799;28;20058;-68
2022/12/13 09:14:11;;;;;;;11.75;4.97;;;;;;;-0.84;100.00;97948.00;5016256;28;20435;-65
2022/12/13 09:16:38;;;;;;;8.50;5.40;;;;;;;-1.00;100.00;98018.47;5015907;28;20327;-65
2022/12/13 09:19:05;;;;;;;9.43;6.03;;;;;;;-0.87;100.00;98110.09;5015829;28;20344;-67
2022/12/13 09:21:31;;;;;;;14.68;6.20;;;;;;;-0.78;100.00;98141.28;5015789;28;20050;-66
2022/12/13 09:23:57;;;;;;;10.55;5.75;;;;;;;-0.79;100.00;98160.44;5015588;28;20046;-68
2022/12/13 09:26:24;;;;;;;13.63;6.40;;;;;;;-0.64;100.00;98172.66;5015864;28;20080;-66
2022/12/13 09:28:50;;;;;;;14.57;6.80;;;;;;;-0.58;100.00;98171.38;5015575;28;20138;-67
2022/12/13 09:31:18;;;;;;;7.22;5.03;;;;;;;-1.05;100.00;98166.56;5016036;28;20428;-67
2022/12/13 09:33:45;;;;;;;9.13;5.18;;;;;;;-0.90;100.00;98194.13;5015598;28;20315;-66
2022/12/13 09:36:15;;;;;;;11.32;5.45;;;;;;;-1.03;100.00;98209.31;5016177;28;20066;-65
2022/12/13 09:38:42;;;;;;;13.30;6.40;;;;;;;-0.83;100.00;98210.63;5015409;28;20148;-68
2022/12/13 09:41:15;;;;;;;9.50;5.05;;;;;;;-0.97;100.00;98221.47;5015425;28;20281;-67
2022/12/13 09:43:43;;;;;;;6.65;4.97;;;;;;;-1.03;100.00;98223.53;5015762;28;20045;-68
2022/12/13 09:46:21;;;;;;;8.18;4.65;;;;;;;-0.88;100.00;98216.94;5015242;28;20054;-65
2022/12/13 09:48:48;;;;;;;10.80;5.15;;;;;;;-0.76;100.00;98203.66;5018003;28;20149;-66
2022/12/13 09:51:15;;;;;;;7.63;4.90;;;;;;;-0.84;100.00;98172.13;5018801;28;20108;-66
2022/12/13 09:53:50;;;;;;;11.20;5.90;;;;;;;-0.75;100.00;98169.47;5019032;28;20049;-67
2022/12/13 09:56:18;;;;;;;8.18;5.03;;;;;;;-0.30;100.00;98139.53;5018537;28;20045;-67
2022/12/13 09:58:48;;;;;;;12.38;5.32;;;;;;;-0.46;100.00;98106.94;5019028;28;20064;-67
2022/12/13 10:01:15;;;;;;;7.25;4.57;;;;;;;-0.44;100.00;98090.47;5018544;28;20470;-67
2022/12/13 10:03:45;;;;;;;13.35;6.40;;;;;;;-0.51;100.00;98069.41;5018409;28;20419;-66
2022/12/13 10:06:14;;;;;;;7.47;4.60;;;;;;;-0.61;100.00;98072.41;5018701;28;20061;-66
2022/12/13 10:08:44;;;;;;;9.02;5.07;;;;;;;-0.52;100.00;98070.53;5018527;28;20431;-67
2022/12/13 10:11:12;;;;;;;9.93;5.20;;;;;;;-0.64;100.00;98083.81;5018806;28;20054;-66
2022/12/13 10:13:41;;;;;;;8.15;4.20;;;;;;;-1.09;100.00;98084.91;5018675;28;20060;-64
2022/12/13 10:16:13;;;;;;;16.52;5.65;;;;;;;-0.95;100.00;98107.06;5018813;28;20059;-65
2022/12/13 10:18:42;;;;;;;9.52;4.75;;;;;;;-0.71;100.00;98124.66;5018309;28;20207;-64
2022/12/13 10:21:12;;;;;;;7.28;4.65;;;;;;;-0.46;100.00;98108.84;5018798;28;20054;-67
2022/12/13 10:23:38;;;;;;;10.38;5.28;;;;;;;-0.83;100.00;98111.84;5018498;28;20096;-65
2022/12/13 10:26:10;;;;;;;8.52;4.85;;;;;;;-0.85;100.00;98124.03;5018218;28;20404;-67
2022/12/13 10:28:37;;;;;;;6.78;4.68;;;;;;;-1.00;100.00;98095.66;5018235;28;20054;-63
2022/12/13 10:31:03;;;;;;;5.72;3.92;;;;;;;-0.93;100.00;98132.88;5018199;28;20058;-67
2022/12/13 10:33:31;;;;;;;7.80;4.25;;;;;;;-0.87;100.00;98092.03;5018228;28;20053;-67
2022/12/13 10:36:07;;;;;;;9.07;5.63;;;;;;;-1.11;100.00;98062.91;5018205;28;20349;-68
2022/12/13 10:38:39;;;;;;;8.65;4.53;;;;;;;-1.24;100.00;98099.59;5018403;28;20076;-66
2022/12/13 10:41:28;;;;;;;9.52;4.20;;;;;;;-1.32;100.00;98135.31;5017991;28;20050;-67
2022/12/13 10:44:08;;;;;;;8.82;5.75;;;;;;;-1.13;100.00;98196.09;5017830;28;20065;-66
2022/12/13 10:46:34;;;;;;;11.57;4.68;;;;;;;-1.09;100.00;98200.56;5018520;28;20148;-65
2022/12/13 10:49:01;;;;;;;10.32;5.13;;;;;;;-1.29;100.00;98207.31;5017862;28;20050;-65
2022/12/13 10:51:37;;;;;;;8.13;4.70;;;;;;;-1.36;100.00;98212.34;5017626;28;20323;-64
2022/12/13 10:54:04;;;;;;;9.40;5.63;;;;;;;-0.80;100.00;98243.09;5017560;28;20053;-67
2022/12/13 10:56:36;;;;;;;12.82;5.10;;;;;;;-1.01;100.00;98220.53;5018116;28;20050;-64
2022/12/13 10:59:11;;;;;;;10.38;6.03;;;;;;;-1.40;100.00;98224.78;5017107;28;20429;-66
2022/12/13 11:01:37;;;;;;;9.52;5.70;;;;;;;-1.58;100.00;98256.16;5018034;28;20415;-68
2022/12/13 11:04:05;;;;;;;9.80;5.47;;;;;;;-1.70;100.00;98272.88;5017406;28;20095;-66
2022/12/13 11:06:41;;;;;;;8.13;5.00;;;;;;;-1.42;100.00;98302.28;5017643;28;20140;-65
2022/12/13 11:09:14;;;;;;;12.05;5.40;;;;;;;-0.98;100.00;98328.31;5017592;28;20392;-65
2022/12/13 11:11:42;;;;;;;13.43;5.97;;;;;;;-1.13;100.00;98285.69;5017396;28;20054;-68
2022/12/13 11:14:17;;;;;;;10.70;6.47;;;;;;;-1.34;100.00;98263.88;5017646;28;20085;-67
2022/12/13 11:16:49;;;;;;;7.13;4.90;;;;;;;-1.25;100.00;98264.72;5017493;28;20054;-65
2022/12/13 11:19:19;;;;;;;8.93;5.57;;;;;;;-0.98;100.00;98265.66;5017739;28;20142;-65
2022/12/13 11:21:49;;;;;;;9.52;5.20;;;;;;;-1.30;100.00;98215.66;5017479;28;20054;-66
2022/12/13 11:24:22;;;;;;;7.55;3.88;;;;;;;-1.22;100.00;98182.66;5017578;28;20058;-67